Terminal Aerodrome Forecast
Issued by NWS

Home | Current Version | Previous Version | Text Only | Print | Product List | Glossary On
Versions: 1 2 3 4 5 6 7 8 9 10 11 12 13
114
FTUS46 KMTR 252339
TAFSJC
TAF
KSJC 252339Z 2600/2624 30012KT P6SM SKC
     FM260800 31007KT P6SM SCT015
      TEMPO 2608/2612 BKN015
     FM261200 31004KT P6SM BKN015
     FM261730 32012KT P6SM SKC=

USA.gov is the U.S. government's official web portal to all federal, state and local government web resources and services.